createdAt,value
2023-02-11T00:01:30.502Z,23.90
2023-02-11T00:03:58.553Z,24.53
2023-02-11T00:06:26.524Z,21.00
2023-02-11T00:08:53.250Z,24.10
2023-02-11T00:11:21.419Z,23.40
2023-02-11T00:13:48.890Z,21.13
2023-02-11T00:16:20.961Z,22.10
2023-02-11T00:18:48.482Z,21.73
2023-02-11T00:21:17.580Z,20.63
2023-02-11T00:23:45.583Z,22.17
2023-02-11T00:26:24.800Z,25.80
2023-02-11T00:28:52.294Z,23.03
2023-02-11T00:31:20.541Z,23.07
2023-02-11T00:33:47.646Z,27.03
2023-02-11T00:36:16.854Z,24.13
2023-02-11T00:38:44.620Z,24.67
2023-02-11T00:41:12.294Z,22.43
2023-02-11T00:43:39.585Z,21.87
2023-02-11T00:46:06.933Z,24.83
2023-02-11T00:48:33.824Z,24.03
2023-02-11T00:51:00.793Z,22.07
2023-02-11T00:53:27.531Z,21.33
2023-02-11T00:55:54.110Z,21.50
2023-02-11T00:58:21.418Z,23.37
2023-02-11T01:00:48.446Z,19.77
2023-02-11T01:03:15.252Z,22.53
2023-02-11T01:05:41.856Z,19.83
2023-02-11T01:08:08.698Z,19.33
2023-02-11T01:10:41.691Z,22.50
2023-02-11T01:13:08.374Z,21.23
2023-02-11T01:15:35.166Z,18.93
2023-02-11T01:18:02.056Z,20.63
2023-02-11T01:20:29.791Z,23.17
2023-02-11T01:22:57.345Z,20.73
2023-02-11T01:25:24.015Z,21.90
2023-02-11T01:27:50.627Z,18.97
2023-02-11T01:30:17.487Z,23.30
2023-02-11T01:32:44.066Z,16.97
2023-02-11T01:35:10.758Z,20.73
2023-02-11T01:37:37.546Z,18.73
2023-02-11T01:40:11.998Z,21.97
2023-02-11T01:42:38.886Z,21.27
2023-02-11T01:45:39.709Z,15.87
2023-02-11T01:48:07.090Z,22.07
2023-02-11T01:50:34.102Z,19.23
2023-02-11T01:53:20.987Z,20.37
2023-02-11T01:56:06.349Z,21.37
2023-02-11T01:58:33.556Z,24.20
2023-02-11T02:01:01.151Z,20.17
2023-02-11T02:03:28.500Z,18.20
2023-02-11T02:06:17.132Z,23.67
2023-02-11T02:08:57.216Z,18.27
2023-02-11T02:11:23.928Z,21.17
2023-02-11T02:13:50.941Z,21.43
2023-02-11T02:16:20.619Z,20.27
2023-02-11T02:19:05.498Z,21.10
2023-02-11T02:22:14.528Z,17.97
2023-02-11T02:25:12.866Z,18.07
2023-02-11T02:28:12.837Z,21.17
2023-02-11T02:31:23.916Z,15.70
2023-02-11T02:33:56.488Z,20.33
2023-02-11T02:36:31.924Z,15.23
2023-02-11T02:39:05.967Z,20.47
2023-02-11T02:41:34.105Z,20.37
2023-02-11T02:44:01.561Z,20.33
2023-02-11T02:46:31.163Z,14.87
2023-02-11T02:48:58.556Z,20.10
2023-02-11T02:51:40.429Z,19.87
2023-02-11T02:54:07.042Z,21.13
2023-02-11T02:56:50.428Z,17.83
2023-02-11T02:59:34.254Z,18.93
2023-02-11T03:02:00.796Z,13.70
2023-02-11T03:04:47.596Z,15.27
2023-02-11T03:07:55.716Z,20.80
2023-02-11T03:10:27.662Z,19.70
2023-02-11T03:12:55.430Z,17.03
2023-02-11T03:15:23.979Z,16.73
2023-02-11T03:17:52.506Z,15.67
2023-02-11T03:20:21.214Z,16.93
2023-02-11T03:23:37.470Z,20.43
2023-02-11T03:26:25.541Z,17.63
2023-02-11T03:28:59.929Z,17.83
2023-02-11T03:31:31.504Z,19.97
2023-02-11T03:34:09.572Z,20.40
2023-02-11T03:36:46.056Z,17.00
2023-02-11T03:39:19.135Z,16.90
2023-02-11T03:41:47.837Z,19.13
2023-02-11T03:44:15.960Z,18.67
2023-02-11T03:46:45.146Z,16.90
2023-02-11T03:49:13.958Z,17.40
2023-02-11T03:51:40.766Z,17.70
2023-02-11T03:54:12.110Z,20.70
2023-02-11T03:56:46.057Z,17.23
2023-02-11T03:59:12.675Z,19.07
2023-02-11T04:01:39.342Z,17.63
2023-02-11T04:04:06.056Z,19.77
2023-02-11T04:06:32.797Z,23.67
2023-02-11T04:08:59.634Z,16.73
2023-02-11T04:11:26.262Z,18.77
2023-02-11T04:13:52.967Z,17.23
2023-02-11T04:16:19.686Z,21.77
2023-02-11T04:18:46.306Z,19.93
2023-02-11T04:21:12.969Z,20.30
2023-02-11T04:23:44.693Z,19.40
2023-02-11T04:26:11.346Z,23.70
2023-02-11T04:28:38.060Z,22.23
2023-02-11T04:31:04.989Z,20.00
2023-02-11T04:33:31.749Z,21.20
2023-02-11T04:35:58.380Z,22.60
2023-02-11T04:38:25.049Z,20.77
2023-02-11T04:40:51.778Z,19.53
2023-02-11T04:43:18.499Z,19.90
2023-02-11T04:45:45.096Z,19.80
2023-02-11T04:48:11.703Z,22.23
2023-02-11T04:50:38.340Z,20.13
2023-02-11T04:53:04.983Z,23.23
2023-02-11T04:55:31.608Z,18.73
2023-02-11T04:57:58.248Z,18.77
2023-02-11T05:00:24.969Z,20.50
2023-02-11T05:02:51.609Z,23.63
2023-02-11T05:05:18.372Z,24.30
2023-02-11T05:07:45.027Z,23.87
2023-02-11T05:10:11.674Z,20.60
2023-02-11T05:12:38.418Z,22.13
2023-02-11T05:15:05.505Z,25.87
2023-02-11T05:17:32.213Z,18.90
2023-02-11T05:19:58.964Z,24.10
2023-02-11T05:22:25.636Z,27.07
2023-02-11T05:24:52.332Z,29.10
2023-02-11T05:27:18.991Z,24.27
2023-02-11T05:29:45.653Z,26.07
2023-02-11T05:32:12.307Z,30.97
2023-02-11T05:34:38.934Z,24.80
2023-02-11T05:37:05.592Z,30.47
2023-02-11T05:39:32.300Z,25.80
2023-02-11T05:41:59.031Z,24.30
2023-02-11T05:44:25.808Z,24.67
2023-02-11T05:46:52.443Z,28.47
2023-02-11T05:49:19.013Z,24.10
2023-02-11T05:51:45.767Z,26.70
2023-02-11T05:54:12.554Z,26.63
2023-02-11T05:56:39.178Z,27.70
2023-02-11T05:59:05.893Z,29.93
2023-02-11T06:01:32.514Z,25.07
2023-02-11T06:03:59.180Z,26.10
2023-02-11T06:06:25.904Z,28.83
2023-02-11T06:08:52.516Z,23.17
2023-02-11T06:11:20.464Z,26.83
2023-02-11T06:13:52.243Z,30.53
2023-02-11T06:16:18.956Z,27.17
2023-02-11T06:18:45.579Z,28.57
2023-02-11T06:21:12.794Z,23.80
2023-02-11T06:23:39.853Z,26.30
2023-02-11T06:26:08.923Z,24.90
2023-02-11T06:28:36.347Z,29.80
2023-02-11T06:31:07.048Z,27.30
2023-02-11T06:33:34.877Z,28.13
2023-02-11T06:36:02.001Z,28.60
2023-02-11T06:38:28.591Z,28.70
2023-02-11T06:40:55.232Z,23.20
2023-02-11T06:43:21.947Z,26.17
2023-02-11T06:45:55.373Z,26.30
2023-02-11T06:48:27.078Z,25.70
2023-02-11T06:50:53.699Z,30.87
2023-02-11T06:53:20.469Z,26.93
2023-02-11T06:55:47.197Z,30.07
2023-02-11T06:58:13.947Z,25.17
2023-02-11T07:00:40.720Z,29.20
2023-02-11T07:03:07.417Z,26.30
2023-02-11T07:05:34.458Z,30.03
2023-02-11T07:08:01.211Z,28.40
2023-02-11T07:10:27.903Z,28.20
2023-02-11T07:12:56.000Z,24.90
2023-02-11T07:15:24.302Z,31.53
2023-02-11T07:17:50.894Z,26.90
2023-02-11T07:20:17.640Z,26.07
2023-02-11T07:22:44.334Z,28.73
2023-02-11T07:25:11.011Z,27.63
2023-02-11T07:27:37.699Z,32.23
2023-02-11T07:30:07.231Z,26.07
2023-02-11T07:32:34.047Z,29.57
2023-02-11T07:35:00.735Z,27.63
2023-02-11T07:37:27.552Z,28.47
2023-02-11T07:39:54.171Z,26.20
2023-02-11T07:42:20.764Z,34.13
2023-02-11T07:44:50.221Z,30.43
2023-02-11T07:47:17.182Z,34.97
2023-02-11T07:49:43.850Z,31.63
2023-02-11T07:52:10.480Z,34.40
2023-02-11T07:54:37.144Z,26.83
2023-02-11T07:57:03.875Z,32.00
2023-02-11T07:59:30.596Z,31.20
2023-02-11T08:01:57.325Z,28.10
2023-02-11T08:04:23.984Z,23.27
2023-02-11T08:06:52.943Z,32.30
2023-02-11T08:09:19.582Z,34.57
2023-02-11T08:11:46.285Z,30.73
2023-02-11T08:14:13.055Z,32.87
2023-02-11T08:16:40.656Z,28.33
2023-02-11T08:19:11.153Z,32.67
2023-02-11T08:21:38.167Z,30.63
2023-02-11T08:24:05.178Z,33.33
2023-02-11T08:26:34.538Z,30.63
2023-02-11T08:29:02.966Z,31.87
2023-02-11T08:31:38.718Z,29.47
2023-02-11T08:34:05.945Z,32.80
2023-02-11T08:36:35.969Z,32.23
2023-02-11T08:39:18.133Z,31.97
2023-02-11T08:41:51.743Z,32.87
2023-02-11T08:44:19.607Z,34.37
2023-02-11T08:46:47.073Z,33.27
2023-02-11T08:49:14.337Z,37.37
2023-02-11T08:51:41.516Z,33.63
2023-02-11T08:54:11.051Z,31.23
2023-02-11T08:56:38.770Z,35.20
2023-02-11T08:59:06.100Z,33.03
2023-02-11T09:01:33.783Z,30.47
2023-02-11T09:04:01.265Z,32.60
2023-02-11T09:06:28.719Z,31.57
2023-02-11T09:08:56.999Z,34.57
2023-02-11T09:11:33.823Z,32.67
2023-02-11T09:14:01.587Z,36.03
2023-02-11T09:16:30.474Z,33.33
2023-02-11T09:18:59.065Z,33.40
2023-02-11T09:21:26.312Z,40.27
2023-02-11T09:23:53.398Z,30.77
2023-02-11T09:26:22.860Z,35.40
2023-02-11T09:28:50.049Z,40.77
2023-02-11T09:31:18.838Z,35.40
2023-02-11T09:33:50.537Z,31.47
2023-02-11T09:36:24.160Z,37.10
2023-02-11T09:38:51.667Z,34.07
2023-02-11T09:41:24.382Z,36.07
2023-02-11T09:43:59.849Z,32.80
2023-02-11T09:46:27.832Z,38.00
2023-02-11T09:48:54.964Z,35.13
2023-02-11T09:51:24.705Z,37.33
2023-02-11T09:53:54.728Z,36.90
2023-02-11T09:56:21.782Z,35.27
2023-02-11T09:58:48.507Z,40.00
2023-02-11T10:01:36.352Z,32.73
2023-02-11T10:04:09.170Z,36.37
2023-02-11T10:06:42.236Z,41.03
2023-02-11T10:09:27.568Z,45.73
2023-02-11T10:12:09.273Z,39.07
2023-02-11T10:14:39.029Z,36.93
2023-02-11T10:17:44.120Z,43.57
2023-02-11T10:20:23.333Z,38.53
2023-02-11T10:22:56.027Z,37.80
2023-02-11T10:25:34.416Z,32.10
2023-02-11T10:28:02.536Z,41.43
2023-02-11T10:30:35.355Z,41.93
2023-02-11T10:33:18.770Z,42.57
2023-02-11T10:35:45.805Z,41.47
2023-02-11T10:38:17.750Z,36.37
2023-02-11T10:40:44.807Z,33.70
2023-02-11T10:43:14.282Z,37.87
2023-02-11T10:45:47.407Z,39.13
2023-02-11T10:48:42.342Z,37.10
2023-02-11T10:51:25.842Z,36.30
2023-02-11T10:54:04.713Z,40.73
2023-02-11T10:56:33.326Z,40.53
2023-02-11T10:59:01.207Z,35.93
2023-02-11T11:01:53.865Z,39.43
2023-02-11T11:04:41.227Z,43.73
2023-02-11T11:07:25.933Z,37.40
2023-02-11T11:09:59.815Z,40.53
2023-02-11T11:12:46.684Z,41.07
2023-02-11T11:15:22.986Z,37.57
2023-02-11T11:18:22.413Z,38.97
2023-02-11T11:21:06.062Z,43.53
2023-02-11T11:23:35.226Z,39.20
2023-02-11T11:26:13.790Z,38.77
2023-02-11T11:29:03.102Z,40.07
2023-02-11T11:31:37.467Z,42.43
2023-02-11T11:34:21.286Z,39.77
2023-02-11T11:36:52.265Z,40.63
2023-02-11T11:39:30.492Z,43.33
2023-02-11T11:42:02.011Z,43.10
2023-02-11T11:44:40.894Z,45.90
2023-02-11T11:47:13.674Z,42.33
2023-02-11T11:50:04.246Z,37.33
2023-02-11T11:52:37.884Z,41.00
2023-02-11T11:55:17.511Z,39.33
2023-02-11T11:57:44.534Z,42.43
2023-02-11T12:00:20.911Z,40.43
2023-02-11T12:03:01.095Z,44.80
2023-02-11T12:05:50.287Z,43.00
2023-02-11T12:08:16.811Z,42.13
2023-02-11T12:11:16.053Z,40.80
2023-02-11T12:14:20.022Z,42.53
2023-02-11T12:16:55.914Z,42.37
2023-02-11T12:19:43.358Z,40.83
2023-02-11T12:22:12.813Z,41.67
2023-02-11T12:24:52.663Z,38.67
2023-02-11T12:27:32.613Z,43.70
2023-02-11T12:30:37.232Z,48.77
2023-02-11T12:33:22.220Z,52.60
2023-02-11T12:36:03.031Z,52.80
2023-02-11T12:38:38.035Z,49.83
2023-02-11T12:41:45.105Z,40.47
2023-02-11T12:44:40.052Z,51.10
2023-02-11T12:47:19.269Z,56.63
2023-02-11T12:49:49.914Z,44.97
2023-02-11T12:52:16.556Z,46.37
2023-02-11T12:54:48.193Z,49.80
2023-02-11T12:57:22.473Z,43.87
2023-02-11T12:59:57.938Z,49.47
2023-02-11T13:02:54.446Z,46.83
2023-02-11T13:05:32.246Z,46.40
2023-02-11T13:08:05.203Z,46.10
2023-02-11T13:10:40.712Z,46.37
2023-02-11T13:13:18.867Z,54.17
2023-02-11T13:15:52.355Z,71.70
2023-02-11T13:18:55.615Z,69.90
2023-02-11T13:21:29.838Z,48.13
2023-02-11T13:24:18.333Z,48.63
2023-02-11T13:27:13.102Z,52.57
2023-02-11T13:30:04.375Z,69.63
2023-02-11T13:32:56.320Z,49.20
2023-02-11T13:35:41.606Z,45.17
2023-02-11T13:38:18.426Z,45.57
2023-02-11T13:40:45.684Z,42.13
2023-02-11T13:43:28.970Z,46.17
2023-02-11T13:46:04.267Z,43.33
2023-02-11T13:48:37.385Z,40.83
2023-02-11T13:51:07.072Z,41.00
2023-02-11T13:53:56.488Z,43.67
2023-02-11T13:56:38.147Z,51.63
2023-02-11T13:59:27.685Z,49.27
2023-02-11T14:02:13.188Z,43.30
2023-02-11T14:05:23.541Z,37.67
2023-02-11T14:08:30.538Z,44.90
2023-02-11T14:11:15.522Z,41.50
2023-02-11T14:13:48.362Z,40.23
2023-02-11T14:16:31.580Z,41.27
2023-02-11T14:19:04.743Z,44.40
2023-02-11T14:21:44.690Z,45.40
2023-02-11T14:24:11.766Z,40.27
2023-02-11T14:26:47.773Z,38.77
2023-02-11T14:29:39.366Z,37.03
2023-02-11T14:32:41.050Z,41.50
2023-02-11T14:35:18.489Z,41.93
2023-02-11T14:38:09.990Z,42.40
2023-02-11T14:40:50.605Z,37.43
2023-02-11T14:43:20.936Z,42.43
2023-02-11T14:45:52.352Z,37.50
2023-02-11T14:48:20.440Z,37.97
2023-02-11T14:50:59.415Z,35.63
2023-02-11T14:53:26.507Z,34.97
2023-02-11T14:55:55.256Z,34.10
2023-02-11T14:58:28.163Z,38.17
2023-02-11T15:01:10.381Z,38.17
2023-02-11T15:03:42.066Z,35.73
2023-02-11T15:13:32.748Z,39.37
2023-02-11T15:16:07.962Z,37.93
2023-02-11T15:18:38.428Z,37.50
2023-02-11T15:21:09.075Z,38.33
2023-02-11T15:23:36.593Z,41.80
2023-02-11T15:26:13.336Z,38.70
2023-02-11T15:28:49.119Z,39.77
2023-02-11T15:31:17.682Z,40.27
2023-02-11T15:33:44.639Z,39.70
2023-02-11T15:36:15.711Z,42.73
2023-02-11T15:38:42.914Z,41.90
2023-02-11T15:41:36.944Z,39.70
2023-02-11T15:44:06.262Z,40.80
2023-02-11T15:46:40.400Z,39.43
2023-02-11T15:49:08.685Z,38.53
2023-02-11T15:51:38.453Z,42.53
2023-02-11T15:54:17.275Z,39.73
2023-02-11T15:56:46.133Z,42.50
2023-02-11T15:59:19.201Z,40.37
2023-02-11T16:01:46.927Z,41.73
2023-02-11T16:04:19.080Z,45.90
2023-02-11T16:06:49.292Z,40.67
2023-02-11T16:09:15.913Z,45.17
2023-02-11T16:11:58.374Z,39.37
2023-02-11T16:14:27.947Z,40.83
2023-02-11T16:17:00.617Z,42.67
2023-02-11T16:19:28.860Z,40.83
2023-02-11T16:21:57.188Z,40.83
2023-02-11T16:24:32.329Z,41.93
2023-02-11T16:27:04.644Z,41.40
2023-02-11T16:29:33.811Z,42.33
2023-02-11T16:32:10.012Z,41.80
2023-02-11T16:34:37.746Z,42.00
2023-02-11T16:37:05.652Z,47.03
2023-02-11T16:39:33.811Z,36.30
2023-02-11T16:42:01.546Z,42.60
2023-02-11T16:44:29.201Z,44.50
2023-02-11T16:46:59.216Z,48.07
2023-02-11T16:49:36.601Z,41.10
2023-02-11T16:52:13.275Z,45.43
2023-02-11T16:54:39.897Z,40.20
2023-02-11T16:57:32.783Z,44.70
2023-02-11T16:59:59.953Z,42.37
2023-02-11T17:02:29.740Z,45.80
2023-02-11T17:04:58.907Z,41.33
2023-02-11T17:07:26.014Z,43.57
2023-02-11T17:09:52.700Z,45.37
2023-02-11T17:12:20.296Z,43.07
2023-02-11T17:14:47.136Z,41.80
2023-02-11T17:17:14.090Z,41.63
2023-02-11T17:19:40.843Z,43.13
2023-02-11T17:22:07.761Z,41.33
2023-02-11T17:24:34.438Z,49.40
2023-02-11T17:27:01.061Z,42.10
2023-02-11T17:29:27.770Z,43.07
2023-02-11T17:31:54.730Z,39.97
2023-02-11T17:34:22.948Z,39.53
2023-02-11T17:36:50.042Z,39.73
2023-02-11T17:39:16.775Z,50.23
2023-02-11T17:41:43.649Z,43.00
2023-02-11T17:44:12.407Z,40.93
2023-02-11T17:46:39.724Z,43.93
2023-02-11T17:49:06.565Z,41.93
2023-02-11T17:51:35.673Z,49.57
2023-02-11T17:54:05.423Z,43.23
2023-02-11T17:56:33.389Z,41.17
2023-02-11T17:59:02.474Z,47.17
2023-02-11T18:01:30.076Z,49.60
2023-02-11T18:03:56.775Z,44.87
2023-02-11T18:06:23.668Z,49.13
2023-02-11T18:08:50.305Z,42.63
2023-02-11T18:11:17.041Z,45.30
2023-02-11T18:13:45.183Z,43.43
2023-02-11T18:16:15.981Z,47.67
2023-02-11T18:18:43.573Z,45.63
2023-02-11T18:21:15.514Z,48.53
2023-02-11T18:23:42.479Z,47.43
2023-02-11T18:26:10.476Z,47.07
2023-02-11T18:28:37.524Z,47.30
2023-02-11T18:31:05.152Z,46.43
2023-02-11T18:33:31.909Z,44.33
2023-02-11T18:35:58.751Z,49.37
2023-02-11T18:38:25.756Z,49.67
2023-02-11T18:40:52.587Z,52.47
2023-02-11T18:43:20.241Z,43.63
2023-02-11T18:45:48.297Z,48.80
2023-02-11T18:48:15.671Z,46.07
2023-02-11T18:50:44.739Z,45.07
2023-02-11T18:53:13.841Z,48.07
2023-02-11T18:55:41.854Z,48.37
2023-02-11T18:58:08.563Z,46.40
2023-02-11T19:00:37.548Z,45.50
2023-02-11T19:03:04.440Z,50.60
2023-02-11T19:05:33.570Z,45.57
2023-02-11T19:08:03.374Z,48.37
2023-02-11T19:10:30.075Z,48.93
2023-02-11T19:12:59.469Z,49.83
2023-02-11T19:15:26.399Z,52.23
2023-02-11T19:17:53.279Z,46.33
2023-02-11T19:20:20.188Z,58.40
2023-02-11T19:22:47.058Z,50.43
2023-02-11T19:25:22.745Z,48.50
2023-02-11T19:27:49.493Z,49.57
2023-02-11T19:30:16.420Z,54.37
2023-02-11T19:32:45.160Z,48.17
2023-02-11T19:35:12.148Z,52.60
2023-02-11T19:37:39.042Z,55.83
2023-02-11T19:40:06.693Z,47.97
2023-02-11T19:42:33.478Z,50.47
2023-02-11T19:45:07.403Z,49.23
2023-02-11T19:47:34.442Z,52.13
2023-02-11T19:50:01.169Z,51.77
2023-02-11T19:52:27.970Z,52.60
2023-02-11T19:54:54.727Z,54.90
2023-02-11T19:57:21.501Z,48.97
2023-02-11T19:59:48.241Z,55.23
2023-02-11T20:02:14.972Z,54.93
2023-02-11T20:04:41.681Z,50.93
2023-02-11T20:07:08.501Z,49.13
2023-02-11T20:09:35.258Z,54.30
2023-02-11T20:12:01.990Z,49.00
2023-02-11T20:14:28.687Z,48.93
2023-02-11T20:16:55.446Z,53.93
2023-02-11T20:19:22.330Z,54.00
2023-02-11T20:21:51.717Z,53.80
2023-02-11T20:24:19.206Z,57.40
2023-02-11T20:26:48.639Z,69.50
2023-02-11T20:29:17.141Z,65.23
2023-02-11T20:31:44.463Z,64.90
2023-02-11T20:34:12.418Z,61.10
2023-02-11T20:36:40.674Z,61.07
2023-02-11T20:39:08.063Z,59.20
2023-02-11T20:41:36.382Z,58.53
2023-02-11T20:44:06.482Z,60.50
2023-02-11T20:46:34.380Z,56.17
2023-02-11T20:49:02.016Z,62.77
2023-02-11T20:51:30.770Z,60.50
2023-02-11T20:53:57.906Z,64.63
2023-02-11T20:56:29.749Z,67.27
2023-02-11T20:59:00.750Z,53.43
2023-02-11T21:01:30.811Z,56.80
2023-02-11T21:04:02.550Z,57.13
2023-02-11T21:06:37.924Z,57.50
2023-02-11T21:09:05.882Z,48.93
2023-02-11T21:11:32.942Z,47.73
2023-02-11T21:14:00.154Z,47.97
2023-02-11T21:16:27.336Z,55.30
2023-02-11T21:18:55.596Z,52.90
2023-02-11T21:21:23.241Z,47.57
2023-02-11T21:23:50.294Z,51.27
2023-02-11T21:26:19.963Z,50.73
2023-02-11T21:28:46.638Z,50.23
2023-02-11T21:31:22.940Z,49.83
2023-02-11T21:33:50.659Z,44.93
2023-02-11T21:36:18.037Z,50.37
2023-02-11T21:38:45.048Z,47.87
2023-02-11T21:41:12.028Z,46.37
2023-02-11T21:43:38.886Z,46.13
2023-02-11T21:46:11.109Z,50.70
2023-02-11T21:48:43.465Z,46.00
2023-02-11T21:51:13.990Z,48.13
2023-02-11T21:53:40.725Z,50.83
2023-02-11T21:56:10.742Z,48.63
2023-02-11T21:58:37.861Z,47.67
2023-02-11T22:01:32.412Z,56.63
2023-02-11T22:03:59.875Z,51.07
2023-02-11T22:06:31.091Z,49.00
2023-02-11T22:09:10.007Z,47.17
2023-02-11T22:11:37.760Z,45.37
2023-02-11T22:14:05.121Z,47.67
2023-02-11T22:16:31.968Z,47.57
2023-02-11T22:18:59.115Z,50.03
2023-02-11T22:21:25.940Z,46.17
2023-02-11T22:23:54.847Z,43.07
2023-02-11T22:26:23.597Z,49.87
2023-02-11T22:28:51.118Z,48.53
2023-02-11T22:31:36.468Z,44.57
2023-02-11T22:34:04.777Z,47.33
2023-02-11T22:36:37.470Z,52.63
2023-02-11T22:39:07.258Z,48.73
2023-02-11T22:41:34.350Z,51.27
2023-02-11T22:44:01.228Z,46.67
2023-02-11T22:46:28.782Z,52.23
2023-02-11T22:48:55.603Z,47.20
2023-02-11T22:51:24.646Z,49.23
2023-02-11T22:53:53.255Z,48.53
2023-02-11T22:56:24.048Z,47.77
2023-02-11T22:58:52.299Z,51.23
2023-02-11T23:01:19.620Z,48.30
2023-02-11T23:03:46.495Z,46.90
2023-02-11T23:06:13.361Z,47.77
2023-02-11T23:08:40.916Z,48.90
2023-02-11T23:11:19.613Z,45.83
2023-02-11T23:13:47.495Z,44.50
2023-02-11T23:16:20.126Z,48.50
2023-02-11T23:18:48.275Z,46.90
2023-02-11T23:21:21.562Z,46.03
2023-02-11T23:23:49.661Z,44.23
2023-02-11T23:26:18.495Z,47.80
2023-02-11T23:28:48.782Z,47.80
2023-02-11T23:31:20.579Z,44.57
2023-02-11T23:33:47.945Z,41.13
2023-02-11T23:36:15.346Z,47.33
2023-02-11T23:38:42.202Z,42.10
2023-02-11T23:41:09.058Z,47.90
2023-02-11T23:43:35.764Z,41.50
2023-02-11T23:46:02.574Z,47.10
2023-02-11T23:48:29.327Z,53.50
2023-02-11T23:50:55.990Z,41.67
2023-02-11T23:53:22.652Z,41.47
2023-02-11T23:55:49.427Z,41.47
2023-02-11T23:58:16.717Z,42.23
